Time;durP1;ratioP1;P1;durP2;ratioP2;P2;SDS_P1;SDS_P2;PMS_P1;PMS_P2;Temp;Humidity;BMP_temperature;BMP_pressure;BME280_temperature;BME280_humidity;BME280_pressure;Samples;Min_cycle;Max_cycle;Signal;HPM_P1;HPM_P2
2023/07/26 00:02:27;;;;;;;9.80;4.95;;;;;;;;;;5062276;28;20048;-75
2023/07/26 00:04:57;;;;;;;10.50;4.90;;;;;;;;;;5062141;28;20044;-75
2023/07/26 00:07:28;;;;;;;9.93;4.85;;;;;;;;;;5062300;28;20052;-75
2023/07/26 00:09:58;;;;;;;8.30;4.70;;;;;;;;;;5062171;28;20053;-74
2023/07/26 00:12:29;;;;;;;7.53;4.75;;;;;;;;;;5062018;28;20056;-73
2023/07/26 00:14:59;;;;;;;11.35;4.78;;;;;;;;;;5061624;28;20049;-74
2023/07/26 00:17:29;;;;;;;9.85;4.65;;;;;;;;;;5061337;28;20056;-75
2023/07/26 00:20:00;;;;;;;8.60;4.90;;;;;;;;;;5059608;28;20052;-75
2023/07/26 00:22:32;;;;;;;7.28;4.18;;;;;;;;;;5061870;28;20052;-75
2023/07/26 00:25:02;;;;;;;8.90;4.65;;;;;;;;;;5062046;28;20047;-75
2023/07/26 00:27:34;;;;;;;7.32;4.47;;;;;;;;;;5061415;28;20119;-75
2023/07/26 00:30:06;;;;;;;7.80;4.65;;;;;;;;;;5061482;28;20047;-75
2023/07/26 00:32:38;;;;;;;7.50;4.38;;;;;;;;;;5060893;28;20071;-76
2023/07/26 00:35:08;;;;;;;6.78;4.45;;;;;;;;;;5059859;28;20648;-75
2023/07/26 00:37:40;;;;;;;13.73;5.88;;;;;;;;;;5061540;28;20040;-75
2023/07/26 00:40:11;;;;;;;9.10;4.60;;;;;;;;;;5061124;28;20044;-75
2023/07/26 00:42:43;;;;;;;9.25;4.20;;;;;;;;;;5061473;28;20403;-74
2023/07/26 00:45:14;;;;;;;9.95;4.63;;;;;;;;;;5062637;28;20052;-75
2023/07/26 00:47:45;;;;;;;6.85;4.53;;;;;;;;;;5064242;28;20063;-75
2023/07/26 00:50:17;;;;;;;7.13;4.13;;;;;;;;;;5064797;28;20549;-75
2023/07/26 00:52:48;;;;;;;6.97;4.47;;;;;;;;;;5064535;28;20059;-76
2023/07/26 00:55:20;;;;;;;6.15;4.18;;;;;;;;;;5065111;28;20602;-75
2023/07/26 00:57:50;;;;;;;7.28;4.18;;;;;;;;;;5064685;28;20053;-75
2023/07/26 01:00:21;;;;;;;8.00;4.60;;;;;;;;;;5063058;28;20431;-77
2023/07/26 01:02:52;;;;;;;8.93;4.53;;;;;;;;;;5065526;28;20860;-76
2023/07/26 01:05:27;;;;;;;5.90;4.05;;;;;;;;;;5064504;28;20063;-75
2023/07/26 01:08:09;;;;;;;9.68;4.10;;;;;;;;;;5063597;28;20091;-75
2023/07/26 01:10:56;;;;;;;5.63;3.55;;;;;;;;;;5064716;28;20585;-75
2023/07/26 01:13:56;;;;;;;7.45;3.75;;;;;;;;;;5063076;28;20055;-75
2023/07/26 01:16:28;;;;;;;8.10;4.15;;;;;;;;;;5062612;28;20061;-75
2023/07/26 01:18:58;;;;;;;6.85;3.50;;;;;;;;;;5064956;28;20036;-74
2023/07/26 01:21:35;;;;;;;7.43;3.85;;;;;;;;;;5061115;28;20507;-76
2023/07/26 01:24:08;;;;;;;5.30;3.90;;;;;;;;;;5063957;28;20048;-76
2023/07/26 01:26:39;;;;;;;5.93;3.45;;;;;;;;;;5065188;28;20102;-76
2023/07/26 01:29:10;;;;;;;8.90;3.85;;;;;;;;;;5063484;28;20053;-76
2023/07/26 01:31:41;;;;;;;6.32;3.70;;;;;;;;;;5064953;28;20098;-76
2023/07/26 01:34:13;;;;;;;6.13;3.80;;;;;;;;;;5062933;28;20057;-76
2023/07/26 01:36:45;;;;;;;7.57;3.60;;;;;;;;;;5063806;28;20055;-75
2023/07/26 01:39:16;;;;;;;8.93;4.10;;;;;;;;;;5063749;28;20056;-75
2023/07/26 01:41:47;;;;;;;7.05;3.40;;;;;;;;;;5064116;28;20048;-76
2023/07/26 01:44:18;;;;;;;4.70;3.53;;;;;;;;;;5064504;28;20503;-76
2023/07/26 01:46:52;;;;;;;4.63;3.33;;;;;;;;;;5064098;28;20044;-76
2023/07/26 01:49:23;;;;;;;7.20;3.92;;;;;;;;;;5063796;28;20060;-75
2023/07/26 01:51:53;;;;;;;7.20;3.58;;;;;;;;;;5063692;28;20074;-76
2023/07/26 01:54:24;;;;;;;5.60;3.55;;;;;;;;;;5063966;28;20067;-76
2023/07/26 01:56:54;;;;;;;4.25;3.30;;;;;;;;;;5064464;28;20041;-75
2023/07/26 01:59:24;;;;;;;5.65;3.33;;;;;;;;;;5062140;28;20052;-75
2023/07/26 02:01:55;;;;;;;6.72;3.80;;;;;;;;;;5063000;28;20053;-76
2023/07/26 02:04:26;;;;;;;8.57;3.53;;;;;;;;;;5061988;28;20083;-76
2023/07/26 02:06:58;;;;;;;6.88;3.53;;;;;;;;;;5062794;28;20056;-76
2023/07/26 02:09:29;;;;;;;6.22;3.83;;;;;;;;;;5064837;28;20064;-75
2023/07/26 02:12:00;;;;;;;8.45;3.97;;;;;;;;;;5063761;28;20057;-75
2023/07/26 02:14:30;;;;;;;7.55;4.00;;;;;;;;;;5061839;28;20048;-75
2023/07/26 02:17:01;;;;;;;7.47;3.75;;;;;;;;;;5062936;28;20503;-75
2023/07/26 02:19:32;;;;;;;6.22;3.85;;;;;;;;;;5063042;28;20065;-76
2023/07/26 02:22:02;;;;;;;7.47;3.42;;;;;;;;;;5061296;28;20064;-76
2023/07/26 02:24:34;;;;;;;5.40;3.42;;;;;;;;;;5063126;28;20509;-76
2023/07/26 02:27:06;;;;;;;6.88;4.22;;;;;;;;;;5063542;28;20491;-76
2023/07/26 02:29:36;;;;;;;6.00;3.60;;;;;;;;;;5045238;28;20049;-75
2023/07/26 02:32:09;;;;;;;4.80;3.58;;;;;;;;;;5061871;28;20059;-75
2023/07/26 02:34:39;;;;;;;8.50;4.00;;;;;;;;;;5061524;28;20060;-76
2023/07/26 02:37:09;;;;;;;8.52;3.83;;;;;;;;;;5065155;28;20048;-76
2023/07/26 02:39:41;;;;;;;8.93;4.18;;;;;;;;;;5062903;28;20051;-76
2023/07/26 02:42:11;;;;;;;6.93;4.20;;;;;;;;;;5080015;28;20032;-76
2023/07/26 02:44:42;;;;;;;6.00;3.63;;;;;;;;;;5088886;28;20047;-76
2023/07/26 02:47:13;;;;;;;5.97;3.40;;;;;;;;;;5076364;28;20060;-76
2023/07/26 02:49:45;;;;;;;5.10;4.00;;;;;;;;;;5062885;28;20045;-75
2023/07/26 02:52:15;;;;;;;10.18;3.83;;;;;;;;;;5061712;28;20075;-76
2023/07/26 02:54:46;;;;;;;5.88;3.30;;;;;;;;;;5061396;28;20056;-76
2023/07/26 02:57:17;;;;;;;4.75;3.47;;;;;;;;;;5060268;28;20063;-76
2023/07/26 02:59:49;;;;;;;5.38;3.92;;;;;;;;;;5062630;28;20052;-76
2023/07/26 03:02:19;;;;;;;6.25;4.05;;;;;;;;;;5062358;28;20040;-76
2023/07/26 03:04:50;;;;;;;7.80;4.10;;;;;;;;;;5060801;28;20056;-76
2023/07/26 03:07:20;;;;;;;6.45;3.50;;;;;;;;;;5061702;28;20071;-76
2023/07/26 03:09:52;;;;;;;7.32;3.90;;;;;;;;;;5062432;28;20047;-75
2023/07/26 03:12:22;;;;;;;6.72;4.35;;;;;;;;;;5062473;28;20522;-76
2023/07/26 03:14:52;;;;;;;6.18;4.15;;;;;;;;;;5062177;28;20048;-75
2023/07/26 03:17:23;;;;;;;5.78;3.75;;;;;;;;;;5062413;28;20063;-75
2023/07/26 03:19:58;;;;;;;8.40;4.20;;;;;;;;;;5060530;28;20057;-76
2023/07/26 03:22:28;;;;;;;8.35;4.32;;;;;;;;;;5062728;28;20158;-75
2023/07/26 03:24:58;;;;;;;9.45;5.70;;;;;;;;;;5063590;28;20446;-76
2023/07/26 03:27:28;;;;;;;9.60;6.32;;;;;;;;;;5060999;28;20809;-76
2023/07/26 03:29:59;;;;;;;10.13;5.93;;;;;;;;;;5060815;28;20059;-76
2023/07/26 03:32:31;;;;;;;9.40;5.90;;;;;;;;;;5060194;28;20056;-76
2023/07/26 03:35:01;;;;;;;8.52;5.53;;;;;;;;;;5060568;28;20403;-75
2023/07/26 03:37:33;;;;;;;10.13;5.43;;;;;;;;;;5062183;28;20431;-76
2023/07/26 03:40:04;;;;;;;9.15;4.47;;;;;;;;;;5060619;28;20422;-76
2023/07/26 03:42:35;;;;;;;9.93;4.28;;;;;;;;;;5062227;28;20072;-75
2023/07/26 03:45:06;;;;;;;11.70;5.45;;;;;;;;;;5061532;28;20068;-76
2023/07/26 03:47:37;;;;;;;6.18;4.20;;;;;;;;;;5062144;28;20045;-75
2023/07/26 03:50:08;;;;;;;8.40;5.25;;;;;;;;;;5062194;28;20041;-75
2023/07/26 03:52:40;;;;;;;12.60;5.10;;;;;;;;;;5062466;28;20040;-75
2023/07/26 03:55:10;;;;;;;9.90;4.30;;;;;;;;;;5062665;28;20052;-75
2023/07/26 03:57:41;;;;;;;8.95;4.72;;;;;;;;;;5062186;28;20071;-75
2023/07/26 04:00:13;;;;;;;7.35;4.72;;;;;;;;;;5060344;28;20515;-75
2023/07/26 04:02:44;;;;;;;10.63;4.43;;;;;;;;;;5066164;28;20064;-75
2023/07/26 04:05:15;;;;;;;8.10;4.63;;;;;;;;;;5061898;28;20067;-75
2023/07/26 04:07:46;;;;;;;7.85;4.22;;;;;;;;;;5062127;28;20501;-75
2023/07/26 04:10:16;;;;;;;7.45;3.75;;;;;;;;;;5062150;28;20162;-75
2023/07/26 04:12:47;;;;;;;9.90;4.45;;;;;;;;;;5061805;28;20044;-74
2023/07/26 04:15:18;;;;;;;8.20;4.28;;;;;;;;;;5061784;28;20052;-75
2023/07/26 04:17:48;;;;;;;6.78;4.40;;;;;;;;;;5061670;28;20043;-75
2023/07/26 04:20:19;;;;;;;8.98;4.97;;;;;;;;;;5064049;28;20129;-75
2023/07/26 04:22:50;;;;;;;9.07;5.13;;;;;;;;;;5064889;28;20052;-75
2023/07/26 04:25:21;;;;;;;7.78;4.25;;;;;;;;;;5065054;28;20051;-75
2023/07/26 04:27:51;;;;;;;13.35;5.07;;;;;;;;;;5065676;28;20048;-75
2023/07/26 04:30:21;;;;;;;11.65;5.57;;;;;;;;;;5065662;28;20773;-75
2023/07/26 04:32:52;;;;;;;10.48;5.75;;;;;;;;;;5065843;28;20044;-75
2023/07/26 04:35:23;;;;;;;9.13;4.78;;;;;;;;;;5065256;28;20040;-75
2023/07/26 04:37:53;;;;;;;6.88;4.68;;;;;;;;;;5065256;28;20056;-74
2023/07/26 04:40:24;;;;;;;11.05;5.07;;;;;;;;;;5064784;28;20419;-75
2023/07/26 04:42:54;;;;;;;7.88;4.70;;;;;;;;;;5064933;28;20051;-75
2023/07/26 04:45:25;;;;;;;10.75;5.25;;;;;;;;;;5063813;28;20059;-75
2023/07/26 04:47:55;;;;;;;12.32;5.15;;;;;;;;;;5066130;28;20388;-74
2023/07/26 04:50:26;;;;;;;8.18;5.25;;;;;;;;;;5065580;28;20051;-75
2023/07/26 04:52:57;;;;;;;9.00;5.20;;;;;;;;;;5064799;28;20503;-75
2023/07/26 04:55:28;;;;;;;9.40;4.78;;;;;;;;;;5065304;28;20059;-75
2023/07/26 04:57:59;;;;;;;7.30;4.95;;;;;;;;;;5064698;28;20106;-74
2023/07/26 05:00:29;;;;;;;10.02;4.43;;;;;;;;;;5064808;28;20049;-74
2023/07/26 05:03:00;;;;;;;6.30;4.30;;;;;;;;;;5063639;28;20407;-75
2023/07/26 05:05:30;;;;;;;9.48;4.78;;;;;;;;;;5064880;28;20044;-75
2023/07/26 05:08:01;;;;;;;6.13;4.07;;;;;;;;;;5064498;28;20041;-75
2023/07/26 05:10:32;;;;;;;8.65;4.55;;;;;;;;;;5064160;28;20041;-75
2023/07/26 05:13:02;;;;;;;6.35;3.97;;;;;;;;;;5064782;28;20051;-75
2023/07/26 05:15:33;;;;;;;10.88;4.20;;;;;;;;;;5064933;28;20044;-75
2023/07/26 05:18:04;;;;;;;8.20;4.15;;;;;;;;;;5064610;28;20048;-75
2023/07/26 05:20:35;;;;;;;7.50;4.13;;;;;;;;;;5063326;28;20081;-75
2023/07/26 05:23:05;;;;;;;7.53;4.32;;;;;;;;;;5064524;28;20521;-75
2023/07/26 05:25:38;;;;;;;7.00;4.47;;;;;;;;;;5063876;28;20045;-75
2023/07/26 05:28:09;;;;;;;10.23;5.65;;;;;;;;;;5065143;28;20045;-76
2023/07/26 05:30:40;;;;;;;6.80;4.82;;;;;;;;;;5063749;28;20040;-76
2023/07/26 05:33:11;;;;;;;9.57;4.20;;;;;;;;;;5064591;28;20071;-75
2023/07/26 05:35:41;;;;;;;9.95;4.38;;;;;;;;;;5062987;28;20063;-75
2023/07/26 05:38:12;;;;;;;6.25;4.03;;;;;;;;;;5063855;28;20055;-75
2023/07/26 05:40:43;;;;;;;6.10;4.20;;;;;;;;;;5063505;28;20048;-75
2023/07/26 05:43:12;;;;;;;8.15;4.38;;;;;;;;;;5064283;28;20056;-75
2023/07/26 05:45:43;;;;;;;7.35;4.47;;;;;;;;;;5063724;28;20044;-75
2023/07/26 05:48:14;;;;;;;8.18;3.92;;;;;;;;;;5063593;28;20055;-75
2023/07/26 05:50:47;;;;;;;9.45;5.00;;;;;;;;;;5063982;28;20040;-75
2023/07/26 05:53:18;;;;;;;5.80;4.07;;;;;;;;;;5064434;28;20407;-76
2023/07/26 05:55:48;;;;;;;6.93;4.75;;;;;;;;;;5063538;28;20059;-75
2023/07/26 05:58:18;;;;;;;7.15;4.22;;;;;;;;;;5063713;28;20053;-75
2023/07/26 06:00:49;;;;;;;9.02;4.72;;;;;;;;;;5063101;28;20056;-75
2023/07/26 06:03:20;;;;;;;7.80;4.43;;;;;;;;;;5064598;28;20415;-75
2023/07/26 06:05:51;;;;;;;8.52;4.07;;;;;;;;;;5064076;28;20399;-75
2023/07/26 06:08:23;;;;;;;7.45;4.18;;;;;;;;;;5063905;28;20052;-75
2023/07/26 06:10:53;;;;;;;7.57;4.03;;;;;;;;;;5063577;28;20048;-75
2023/07/26 06:13:24;;;;;;;9.60;5.40;;;;;;;;;;5064615;28;20040;-75
2023/07/26 06:15:55;;;;;;;9.38;5.25;;;;;;;;;;5063522;28;20045;-75
2023/07/26 06:18:25;;;;;;;9.60;5.15;;;;;;;;;;5063702;28;20037;-75
2023/07/26 06:20:55;;;;;;;8.73;4.45;;;;;;;;;;5062906;28;20057;-75
2023/07/26 06:23:27;;;;;;;7.38;3.90;;;;;;;;;;5063757;28;20040;-75
2023/07/26 06:25:57;;;;;;;7.90;4.40;;;;;;;;;;5063257;28;20526;-75
2023/07/26 06:28:27;;;;;;;6.65;4.22;;;;;;;;;;5062638;28;20459;-75
2023/07/26 06:30:58;;;;;;;7.80;4.00;;;;;;;;;;5062891;28;20052;-75
2023/07/26 06:33:28;;;;;;;6.60;3.90;;;;;;;;;;5062971;28;20045;-76
2023/07/26 06:36:00;;;;;;;7.22;3.60;;;;;;;;;;5061845;28;20076;-75
2023/07/26 06:38:31;;;;;;;10.10;3.58;;;;;;;;;;5062597;28;20048;-75
2023/07/26 06:41:01;;;;;;;7.05;4.43;;;;;;;;;;5061788;28;20048;-75
2023/07/26 06:43:32;;;;;;;6.90;3.85;;;;;;;;;;5062124;28;20511;-75
2023/07/26 06:46:03;;;;;;;8.98;3.67;;;;;;;;;;5062529;28;20048;-75
2023/07/26 06:48:33;;;;;;;9.57;4.50;;;;;;;;;;5062683;28;20060;-75
2023/07/26 06:51:04;;;;;;;6.90;3.67;;;;;;;;;;5062265;28;20048;-75
2023/07/26 06:53:36;;;;;;;6.55;3.88;;;;;;;;;;5062577;28;20072;-76
2023/07/26 06:56:06;;;;;;;8.18;4.47;;;;;;;;;;5062844;28;20044;-75
2023/07/26 06:58:37;;;;;;;8.02;4.03;;;;;;;;;;5063709;28;20518;-75
2023/07/26 07:01:20;;;;;;;6.28;3.65;;;;;;;;;;5089333;28;20408;-75
2023/07/26 07:03:50;;;;;;;8.07;4.15;;;;;;;;;;5088709;28;20040;-75
2023/07/26 07:06:40;;;;;;;7.18;3.97;;;;;;;;;;5065369;28;20064;-75
2023/07/26 07:09:12;;;;;;;6.93;3.65;;;;;;;;;;5062320;28;20040;-75
2023/07/26 07:11:43;;;;;;;7.35;3.67;;;;;;;;;;5063235;28;20059;-75
2023/07/26 07:14:13;;;;;;;9.63;3.92;;;;;;;;;;5063242;28;20044;-75
2023/07/26 07:16:45;;;;;;;6.18;3.88;;;;;;;;;;5062246;28;20529;-75
2023/07/26 07:19:15;;;;;;;7.80;3.85;;;;;;;;;;5060361;28;20049;-75
2023/07/26 07:21:46;;;;;;;7.82;3.50;;;;;;;;;;5062057;28;20067;-75
2023/07/26 07:24:16;;;;;;;7.13;3.85;;;;;;;;;;5062371;28;20059;-75
2023/07/26 07:26:47;;;;;;;6.00;3.78;;;;;;;;;;5062458;28;20048;-75
2023/07/26 07:29:17;;;;;;;6.43;4.32;;;;;;;;;;5063200;28;20048;-75
2023/07/26 07:31:48;;;;;;;7.05;4.00;;;;;;;;;;5062567;28;20495;-75
2023/07/26 07:34:18;;;;;;;8.38;4.00;;;;;;;;;;5061492;28;20059;-75
2023/07/26 07:36:48;;;;;;;8.48;4.28;;;;;;;;;;5062044;28;20052;-75
2023/07/26 07:39:19;;;;;;;7.93;4.25;;;;;;;;;;5061856;28;20041;-75
2023/07/26 07:41:51;;;;;;;8.23;4.00;;;;;;;;;;5061911;28;20407;-75
2023/07/26 07:44:23;;;;;;;5.80;4.10;;;;;;;;;;5061784;28;20056;-75
2023/07/26 07:46:53;;;;;;;5.93;4.00;;;;;;;;;;5062009;28;20415;-75
2023/07/26 07:49:32;;;;;;;6.32;4.10;;;;;;;;;;5061996;28;20048;-75
2023/07/26 07:52:03;;;;;;;8.77;4.20;;;;;;;;;;5062278;28;20507;-74
2023/07/26 07:54:35;;;;;;;8.38;4.20;;;;;;;;;;5065337;28;20509;-75
2023/07/26 07:57:05;;;;;;;5.80;3.50;;;;;;;;;;5066452;28;20431;-74
2023/07/26 07:59:37;;;;;;;11.85;3.92;;;;;;;;;;5063942;28;20056;-74
2023/07/26 08:02:07;;;;;;;7.63;3.78;;;;;;;;;;5066021;28;20048;-75
2023/07/26 08:04:38;;;;;;;6.20;3.80;;;;;;;;;;5066212;28;20048;-74
2023/07/26 08:07:09;;;;;;;5.35;3.83;;;;;;;;;;5065317;28;20503;-75
2023/07/26 08:09:42;;;;;;;5.70;3.80;;;;;;;;;;5064632;28;20052;-75
2023/07/26 08:12:13;;;;;;;11.10;4.10;;;;;;;;;;5065668;28;20075;-75
2023/07/26 08:14:49;;;;;;;10.48;4.78;;;;;;;;;;5065370;28;20427;-75
2023/07/26 08:17:20;;;;;;;10.73;4.32;;;;;;;;;;5065985;28;20048;-75
2023/07/26 08:19:50;;;;;;;8.52;4.20;;;;;;;;;;5065031;28;20553;-75
2023/07/26 08:22:22;;;;;;;7.82;4.18;;;;;;;;;;5064998;28;20041;-74
2023/07/26 08:24:53;;;;;;;8.32;4.25;;;;;;;;;;5064238;28;20052;-75
2023/07/26 08:27:24;;;;;;;5.75;3.72;;;;;;;;;;5065400;28;20049;-75
2023/07/26 08:29:55;;;;;;;8.30;3.80;;;;;;;;;;5065421;28;20055;-75
2023/07/26 08:32:26;;;;;;;6.95;3.85;;;;;;;;;;5065921;28;20052;-75
2023/07/26 08:34:56;;;;;;;5.35;3.42;;;;;;;;;;5065946;28;20535;-75
2023/07/26 08:37:26;;;;;;;11.68;4.07;;;;;;;;;;5065470;28;20055;-75
2023/07/26 08:39:57;;;;;;;7.10;3.85;;;;;;;;;;5065471;28;20511;-75
2023/07/26 08:42:27;;;;;;;7.57;4.35;;;;;;;;;;5064949;28;20051;-75
2023/07/26 08:44:59;;;;;;;6.90;3.83;;;;;;;;;;5065511;28;20060;-75
2023/07/26 08:47:32;;;;;;;5.18;4.07;;;;;;;;;;5065723;28;20342;-75
2023/07/26 08:50:07;;;;;;;5.70;3.80;;;;;;;;;;5065031;28;20044;-76
2023/07/26 08:52:39;;;;;;;6.47;3.55;;;;;;;;;;5065475;28;20044;-74
2023/07/26 08:55:11;;;;;;;8.25;4.18;;;;;;;;;;5064980;28;20055;-74
2023/07/26 08:57:43;;;;;;;12.07;4.35;;;;;;;;;;5062825;28;20062;-75
2023/07/26 09:00:14;;;;;;;6.22;3.63;;;;;;;;;;5063523;28;20076;-76
2023/07/26 09:02:47;;;;;;;5.80;4.10;;;;;;;;;;5064311;28;20582;-76
2023/07/26 09:05:18;;;;;;;5.45;3.60;;;;;;;;;;5063464;28;20061;-75
2023/07/26 09:07:53;;;;;;;5.30;3.50;;;;;;;;;;5063502;28;20115;-75
2023/07/26 09:10:28;;;;;;;6.50;4.18;;;;;;;;;;5064002;28;20380;-77
2023/07/26 09:13:13;;;;;;;5.80;3.15;;;;;;;;;;5065139;28;21134;-74
2023/07/26 09:15:44;;;;;;;6.47;3.70;;;;;;;;;;5063400;28;20063;-74
2023/07/26 09:18:14;;;;;;;6.45;3.63;;;;;;;;;;5064323;28;20446;-74
2023/07/26 09:20:44;;;;;;;5.93;3.85;;;;;;;;;;5064324;28;20534;-74
2023/07/26 09:23:16;;;;;;;9.05;3.58;;;;;;;;;;5065018;28;20415;-74
2023/07/26 09:25:46;;;;;;;6.65;3.70;;;;;;;;;;5064478;28;20041;-74
2023/07/26 09:28:18;;;;;;;7.93;4.03;;;;;;;;;;5064477;28;20041;-75
2023/07/26 09:30:49;;;;;;;6.35;3.72;;;;;;;;;;5064493;28;20051;-74
2023/07/26 09:33:23;;;;;;;7.22;3.50;;;;;;;;;;5064307;28;20056;-74
2023/07/26 09:35:53;;;;;;;8.00;3.58;;;;;;;;;;5063979;28;20044;-74
2023/07/26 09:38:26;;;;;;;7.13;3.65;;;;;;;;;;5064224;28;20044;-75
2023/07/26 09:40:56;;;;;;;5.95;3.97;;;;;;;;;;5064355;28;20491;-75
2023/07/26 09:43:31;;;;;;;5.18;2.92;;;;;;;;;;5063775;28;20068;-75
2023/07/26 09:46:04;;;;;;;5.45;3.83;;;;;;;;;;5064087;28;20055;-75
2023/07/26 09:49:03;;;;;;;6.55;3.72;;;;;;;;;;5064002;28;20055;-75
2023/07/26 09:51:38;;;;;;;5.05;3.20;;;;;;;;;;5064555;28;20052;-75
2023/07/26 09:54:28;;;;;;;;;;;;;;;;;;5065352;28;20056;-75
2023/07/26 09:57:04;;;;;;;5.28;3.35;;;;;;;;;;5065271;28;20405;-77
2023/07/26 09:59:39;;;;;;;6.55;3.50;;;;;;;;;;5063743;28;20044;-80
2023/07/26 10:02:11;;;;;;;5.43;3.40;;;;;;;;;;5063733;28;20407;-75
2023/07/26 10:04:53;;;;;;;6.65;3.30;;;;;;;;;;5063718;28;20059;-75
2023/07/26 10:07:27;;;;;;;6.95;3.33;;;;;;;;;;5063419;28;20049;-75
2023/07/26 10:10:01;;;;;;;7.13;3.63;;;;;;;;;;5064072;28;20530;-75
2023/07/26 10:12:33;;;;;;;5.18;3.63;;;;;;;;;;5063593;28;20040;-75
2023/07/26 10:15:05;;;;;;;10.15;4.07;;;;;;;;;;5061995;28;20496;-74
2023/07/26 10:17:38;;;;;;;6.95;4.05;;;;;;;;;;5063468;28;20045;-75
2023/07/26 10:20:10;;;;;;;12.98;3.50;;;;;;;;;;5062081;28;20063;-75
2023/07/26 10:22:43;;;;;;;6.38;3.20;;;;;;;;;;5063191;28;20059;-75
2023/07/26 10:25:14;;;;;;;4.32;3.28;;;;;;;;;;5063113;28;20056;-75
2023/07/26 10:27:44;;;;;;;9.98;4.03;;;;;;;;;;5063914;28;20044;-75
2023/07/26 10:30:16;;;;;;;7.78;3.55;;;;;;;;;;5063286;28;20586;-75
2023/07/26 10:32:50;;;;;;;6.53;3.83;;;;;;;;;;5063108;28;20048;-76
2023/07/26 10:35:31;;;;;;;6.03;4.07;;;;;;;;;;5062803;28;20495;-76
2023/07/26 10:38:05;;;;;;;12.40;4.07;;;;;;;;;;5063169;28;20510;-76
2023/07/26 10:40:39;;;;;;;9.32;3.08;;;;;;;;;;5060721;28;20061;-77
2023/07/26 10:43:22;;;;;;;5.80;3.10;;;;;;;;;;5063424;28;20059;-75
2023/07/26 10:45:56;;;;;;;16.52;3.17;;;;;;;;;;5062670;28;20055;-75
2023/07/26 10:48:36;;;;;;;3.90;2.70;;;;;;;;;;5062572;28;20503;-75
2023/07/26 10:51:32;;;;;;;5.13;3.10;;;;;;;;;;5062783;28;20049;-75
2023/07/26 10:54:05;;;;;;;11.43;3.63;;;;;;;;;;5062323;28;20059;-74
2023/07/26 10:56:37;;;;;;;5.63;3.35;;;;;;;;;;5061373;28;20075;-76
2023/07/26 10:59:11;;;;;;;6.40;2.55;;;;;;;;;;5063046;28;20052;-76
2023/07/26 11:01:46;;;;;;;6.05;3.40;;;;;;;;;;5062379;28;20414;-75
2023/07/26 11:04:22;;;;;;;6.60;3.00;;;;;;;;;;5062756;28;20067;-75
2023/07/26 11:07:00;;;;;;;6.18;3.72;;;;;;;;;;5063502;28;20048;-75
2023/07/26 11:09:36;;;;;;;9.75;4.40;;;;;;;;;;5062497;28;20048;-75
2023/07/26 11:12:13;;;;;;;7.43;4.00;;;;;;;;;;5062549;28;20049;-75
2023/07/26 11:14:44;;;;;;;7.03;4.60;;;;;;;;;;5069112;28;20056;-74
2023/07/26 11:17:43;;;;;;;8.90;4.28;;;;;;;;;;5081325;28;20048;-74
2023/07/26 11:20:14;;;;;;;9.68;4.85;;;;;;;;;;5078137;28;20531;-74
2023/07/26 11:22:45;;;;;;;7.10;4.45;;;;;;;;;;5062781;28;20843;-74
2023/07/26 11:25:16;;;;;;;9.73;4.30;;;;;;;;;;5061597;28;20048;-75
2023/07/26 11:27:47;;;;;;;9.90;4.65;;;;;;;;;;5060357;28;20052;-75
2023/07/26 11:30:20;;;;;;;11.35;4.75;;;;;;;;;;5062671;28;20044;-74
2023/07/26 11:32:51;;;;;;;8.77;4.57;;;;;;;;;;5044627;28;20063;-74
2023/07/26 11:35:23;;;;;;;6.82;4.30;;;;;;;;;;5059129;28;20079;-75
2023/07/26 11:37:57;;;;;;;7.30;4.32;;;;;;;;;;5061660;28;20053;-75
2023/07/26 11:40:27;;;;;;;14.82;5.97;;;;;;;;;;5062159;28;20052;-75
2023/07/26 11:42:58;;;;;;;14.10;5.85;;;;;;;;;;5060771;28;20590;-75
2023/07/26 11:45:31;;;;;;;9.52;5.10;;;;;;;;;;5062431;28;20056;-76
2023/07/26 11:48:02;;;;;;;10.10;5.63;;;;;;;;;;5063616;28;20052;-76
2023/07/26 11:50:33;;;;;;;10.98;5.50;;;;;;;;;;5062014;28;20036;-75
2023/07/26 11:53:15;;;;;;;14.30;5.85;;;;;;;;;;5060578;28;20610;-75
2023/07/26 11:56:04;;;;;;;12.32;4.88;;;;;;;;;;5060701;28;20051;-76
2023/07/26 11:58:34;;;;;;;10.63;4.82;;;;;;;;;;5060188;28;20423;-75
2023/07/26 12:01:06;;;;;;;10.40;4.60;;;;;;;;;;5061208;28;20040;-76
2023/07/26 12:03:37;;;;;;;8.50;4.43;;;;;;;;;;5062181;28;20040;-75
2023/07/26 12:06:09;;;;;;;14.50;4.70;;;;;;;;;;5063423;28;20063;-76
2023/07/26 12:08:47;;;;;;;8.82;4.15;;;;;;;;;;5063762;28;20044;-78
2023/07/26 12:11:18;;;;;;;14.68;4.80;;;;;;;;;;5063643;28;20056;-75
2023/07/26 12:13:49;;;;;;;26.95;6.03;;;;;;;;;;5061796;28;20533;-76
2023/07/26 12:16:27;;;;;;;7.97;4.32;;;;;;;;;;5062153;28;20140;-76
2023/07/26 12:19:00;;;;;;;10.38;4.72;;;;;;;;;;5060478;28;20048;-76
2023/07/26 12:21:32;;;;;;;9.32;5.20;;;;;;;;;;5062764;28;20538;-75
2023/07/26 12:24:04;;;;;;;11.20;5.10;;;;;;;;;;5061372;28;20491;-75
2023/07/26 12:26:35;;;;;;;11.40;5.72;;;;;;;;;;5061678;28;20048;-76
2023/07/26 12:29:07;;;;;;;10.50;5.25;;;;;;;;;;5061640;28;20399;-76
2023/07/26 12:31:38;;;;;;;12.18;5.88;;;;;;;;;;5062014;28;20384;-77
2023/07/26 12:34:11;;;;;;;11.77;5.60;;;;;;;;;;5061980;28;20055;-75
2023/07/26 12:36:50;;;;;;;10.00;5.72;;;;;;;;;;5062127;28;21073;-76
2023/07/26 12:39:22;;;;;;;13.40;5.72;;;;;;;;;;5062308;28;20051;-76
2023/07/26 12:41:53;;;;;;;11.82;5.70;;;;;;;;;;5065281;28;20040;-76
2023/07/26 12:44:27;;;;;;;8.45;5.00;;;;;;;;;;5066944;28;20040;-76
2023/07/26 12:47:00;;;;;;;8.70;5.85;;;;;;;;;;5066492;28;20056;-76
2023/07/26 12:49:51;;;;;;;7.72;4.60;;;;;;;;;;5067771;28;20052;-78
2023/07/26 12:52:22;;;;;;;10.45;4.93;;;;;;;;;;5066527;28;20055;-76
2023/07/26 12:54:52;;;;;;;11.88;7.32;;;;;;;;;;5063808;28;20048;-76
2023/07/26 12:57:23;;;;;;;8.95;5.75;;;;;;;;;;5064601;28;20049;-75
2023/07/26 12:59:53;;;;;;;12.32;5.93;;;;;;;;;;5064887;28;20385;-75
2023/07/26 13:02:23;;;;;;;8.38;6.13;;;;;;;;;;5064705;28;20546;-75
2023/07/26 13:04:55;;;;;;;8.68;6.07;;;;;;;;;;5063560;28;20060;-75
2023/07/26 13:07:27;;;;;;;9.07;6.43;;;;;;;;;;5065089;28;20434;-75
2023/07/26 13:10:00;;;;;;;14.05;6.90;;;;;;;;;;5064926;28;20594;-75
2023/07/26 13:12:31;;;;;;;11.15;7.43;;;;;;;;;;5066062;28;20040;-75
2023/07/26 13:15:03;;;;;;;9.82;6.95;;;;;;;;;;5065303;28;20052;-75
2023/07/26 13:17:34;;;;;;;14.48;7.40;;;;;;;;;;5064887;28;20574;-75
2023/07/26 13:20:05;;;;;;;11.07;7.20;;;;;;;;;;5064732;28;20407;-75
2023/07/26 13:22:36;;;;;;;16.70;7.43;;;;;;;;;;5064847;28;20519;-75
2023/07/26 13:25:09;;;;;;;18.17;8.50;;;;;;;;;;5065830;28;20052;-75
2023/07/26 13:27:42;;;;;;;11.30;7.43;;;;;;;;;;5064652;28;20111;-76
2023/07/26 13:30:13;;;;;;;14.95;7.80;;;;;;;;;;5066441;28;20071;-76
2023/07/26 13:32:43;;;;;;;21.08;8.18;;;;;;;;;;5064236;28;20423;-76
2023/07/26 13:35:13;;;;;;;12.30;8.05;;;;;;;;;;5064131;28;20782;-76
2023/07/26 13:37:44;;;;;;;10.40;6.63;;;;;;;;;;5064803;28;20049;-76
2023/07/26 13:40:19;;;;;;;8.77;6.40;;;;;;;;;;5062161;28;20056;-76
2023/07/26 13:42:50;;;;;;;12.30;6.65;;;;;;;;;;5064588;28;20520;-75
2023/07/26 13:45:20;;;;;;;11.18;5.97;;;;;;;;;;5062794;28;20056;-76
2023/07/26 13:47:50;;;;;;;21.73;7.63;;;;;;;;;;5062900;28;20055;-75
2023/07/26 13:50:21;;;;;;;10.25;5.85;;;;;;;;;;5063943;28;20047;-76
2023/07/26 13:52:53;;;;;;;10.52;5.80;;;;;;;;;;5063493;28;20052;-76
2023/07/26 13:55:26;;;;;;;11.13;5.35;;;;;;;;;;5063856;28;20052;-76
2023/07/26 13:57:56;;;;;;;11.55;5.07;;;;;;;;;;5065082;28;20055;-76
2023/07/26 14:00:27;;;;;;;7.30;5.05;;;;;;;;;;5063553;28;20048;-75
2023/07/26 14:02:57;;;;;;;6.10;4.60;;;;;;;;;;5063945;28;20053;-75
2023/07/26 14:05:27;;;;;;;6.85;4.63;;;;;;;;;;5062538;28;20056;-76
2023/07/26 14:07:57;;;;;;;7.90;4.57;;;;;;;;;;5062916;28;20044;-76
2023/07/26 14:10:29;;;;;;;10.30;5.18;;;;;;;;;;5064058;28;20052;-76
2023/07/26 14:13:01;;;;;;;9.75;5.32;;;;;;;;;;5064932;28;20411;-75
2023/07/26 14:15:32;;;;;;;9.23;4.60;;;;;;;;;;5063129;28;20055;-76
2023/07/26 14:18:03;;;;;;;6.82;4.20;;;;;;;;;;5063106;28;20044;-75
2023/07/26 14:20:33;;;;;;;9.35;4.57;;;;;;;;;;5064140;28;20049;-76
2023/07/26 14:23:05;;;;;;;10.20;4.30;;;;;;;;;;5063882;28;20036;-76
2023/07/26 14:25:37;;;;;;;10.52;4.57;;;;;;;;;;5063489;28;20052;-75
2023/07/26 14:28:07;;;;;;;9.55;4.97;;;;;;;;;;5064260;28;20063;-75
2023/07/26 14:30:38;;;;;;;8.68;4.93;;;;;;;;;;5062013;28;20059;-75
2023/07/26 14:33:09;;;;;;;9.35;4.80;;;;;;;;;;5064657;28;20055;-75
2023/07/26 14:35:40;;;;;;;8.90;4.68;;;;;;;;;;5064235;28;20041;-75
2023/07/26 14:38:10;;;;;;;6.85;5.13;;;;;;;;;;5066003;28;20036;-75
2023/07/26 14:40:41;;;;;;;11.60;6.03;;;;;;;;;;5063099;28;20048;-76
2023/07/26 14:43:12;;;;;;;8.90;5.57;;;;;;;;;;5063018;28;20048;-77
2023/07/26 14:45:43;;;;;;;10.10;5.47;;;;;;;;;;5063203;28;20052;-76
2023/07/26 14:48:13;;;;;;;12.70;6.38;;;;;;;;;;5062429;28;20055;-77
2023/07/26 14:50:43;;;;;;;10.43;6.43;;;;;;;;;;5063952;28;20059;-76
2023/07/26 14:53:14;;;;;;;7.75;6.03;;;;;;;;;;5063621;28;20049;-76
2023/07/26 14:55:46;;;;;;;11.27;5.28;;;;;;;;;;5063468;28;20418;-76
2023/07/26 14:58:16;;;;;;;9.18;5.25;;;;;;;;;;5062763;28;20048;-76
2023/07/26 15:00:47;;;;;;;10.85;5.03;;;;;;;;;;5063437;28;20045;-76
2023/07/26 15:03:18;;;;;;;9.10;5.50;;;;;;;;;;5064426;28;20045;-76
2023/07/26 15:05:49;;;;;;;8.82;5.00;;;;;;;;;;5063121;28;20052;-75
2023/07/26 15:08:21;;;;;;;12.82;5.10;;;;;;;;;;5063501;28;20119;-76
2023/07/26 15:10:53;;;;;;;9.00;5.20;;;;;;;;;;5062938;28;20048;-77